createdAt,value
2019-04-28T00:02:56.543Z,22.23
2019-04-28T00:06:23.397Z,23.10
2019-04-28T00:09:35.210Z,24.83
2019-04-28T00:13:37.165Z,23.63
2019-04-28T00:16:44.106Z,23.10
2019-04-28T00:31:42.363Z,25.70
2019-04-28T00:34:51.150Z,26.20
2019-04-28T00:38:05.846Z,24.37
2019-04-28T00:41:11.063Z,25.60
2019-04-28T00:48:54.177Z,24.63
2019-04-28T00:52:41.765Z,29.00
2019-04-28T00:55:53.988Z,26.57
2019-04-28T00:59:01.815Z,26.13
2019-04-28T01:02:28.712Z,27.83
2019-04-28T01:05:35.057Z,27.63
2019-04-28T01:08:59.374Z,26.30
2019-04-28T01:12:17.545Z,25.43
2019-04-28T01:18:57.420Z,27.10
2019-04-28T01:22:12.551Z,23.73
2019-04-28T01:25:17.532Z,25.67
2019-04-28T01:28:34.724Z,25.57
2019-04-28T01:36:20.203Z,26.93
2019-04-28T01:39:25.679Z,23.07
2019-04-28T01:42:30.653Z,26.73
2019-04-28T01:45:35.669Z,25.87
2019-04-28T01:49:16.512Z,26.73
2019-04-28T01:52:27.620Z,24.60
2019-04-28T01:55:32.592Z,28.27
2019-04-28T01:58:40.767Z,28.67
2019-04-28T02:01:46.965Z,26.00
2019-04-28T02:04:52.098Z,25.50
2019-04-28T02:08:00.324Z,23.93
2019-04-28T02:11:14.350Z,25.53
2019-04-28T02:14:19.558Z,26.30
2019-04-28T02:17:23.828Z,28.90
2019-04-28T02:20:30.006Z,26.40
2019-04-28T02:23:35.021Z,22.93
2019-04-28T02:26:40.304Z,28.43
2019-04-28T02:29:44.592Z,28.17
2019-04-28T02:32:51.636Z,26.07
2019-04-28T02:35:54.886Z,25.87
2019-04-28T02:39:00.814Z,29.40
2019-04-28T02:42:05.191Z,28.57
2019-04-28T02:45:11.613Z,27.03
2019-04-28T02:48:21.255Z,28.13
2019-04-28T02:51:31.158Z,26.43
2019-04-28T02:54:35.449Z,25.37
2019-04-28T02:57:40.600Z,26.30
2019-04-28T03:01:01.078Z,27.00
2019-04-28T03:03:51.011Z,31.33
2019-04-28T03:06:55.294Z,29.43
2019-04-28T03:10:03.233Z,25.33
2019-04-28T03:13:05.576Z,30.47
2019-04-28T03:16:10.860Z,27.23
2019-04-28T03:19:15.303Z,25.40
2019-04-28T03:22:20.407Z,28.23
2019-04-28T03:25:35.938Z,28.40
2019-04-28T03:29:02.282Z,27.60
2019-04-28T03:32:39.997Z,31.07
2019-04-28T03:35:34.395Z,28.83
2019-04-28T03:38:40.610Z,27.13
2019-04-28T03:41:44.752Z,28.07
2019-04-28T03:44:51.088Z,25.43
2019-04-28T03:47:55.024Z,26.07
2019-04-28T03:51:00.665Z,28.23
2019-04-28T03:54:05.070Z,27.67
2019-04-28T03:57:11.436Z,25.37
2019-04-28T04:00:15.364Z,27.03
2019-04-28T04:03:21.000Z,20.73
2019-04-28T04:06:25.555Z,22.93
2019-04-28T04:09:37.723Z,21.87
2019-04-28T04:13:01.073Z,20.63
2019-04-28T04:16:27.482Z,26.03
2019-04-28T04:19:34.589Z,25.57
2019-04-28T04:22:41.173Z,22.83
2019-04-28T04:25:44.873Z,19.67
2019-04-28T04:28:51.487Z,21.20
2019-04-28T04:32:10.114Z,17.23
2019-04-28T04:35:01.215Z,18.93
2019-04-28T04:38:05.532Z,20.57
2019-04-28T04:41:11.181Z,23.57
2019-04-28T04:44:15.683Z,21.73
2019-04-28T04:47:21.058Z,18.13
2019-04-28T04:50:25.451Z,19.40
2019-04-28T04:53:30.784Z,18.17
2019-04-28T04:56:35.091Z,19.53
2019-04-28T04:59:40.117Z,16.53
2019-04-28T05:02:55.367Z,17.33
2019-04-28T05:06:00.148Z,18.43
2019-04-28T05:09:10.167Z,17.07
2019-04-28T05:12:14.638Z,15.17
2019-04-28T05:15:20.362Z,19.67
2019-04-28T05:18:24.689Z,17.33
2019-04-28T05:21:32.789Z,16.20
2019-04-28T05:24:40.834Z,13.40
2019-04-28T05:27:45.134Z,16.63
2019-04-28T05:30:50.251Z,12.73
2019-04-28T05:33:54.613Z,18.50
2019-04-28T05:37:00.684Z,12.13
2019-04-28T05:40:05.319Z,14.77
2019-04-28T05:43:10.665Z,14.67
2019-04-28T05:46:14.995Z,15.50
2019-04-28T05:49:39.732Z,11.47
2019-04-28T05:53:03.034Z,17.23
2019-04-28T05:56:39.709Z,12.47
2019-04-28T05:59:50.550Z,13.07
2019-04-28T06:02:56.847Z,11.70
2019-04-28T06:06:01.332Z,14.87
2019-04-28T06:09:23.107Z,15.40
2019-04-28T06:12:27.395Z,16.67
2019-04-28T06:15:31.703Z,10.63
2019-04-28T06:18:35.980Z,13.40
2019-04-28T06:21:40.261Z,12.40
2019-04-28T06:24:44.554Z,12.70
2019-04-28T06:27:48.837Z,10.77
2019-04-28T06:30:53.136Z,10.47
2019-04-28T06:33:57.404Z,8.30
2019-04-28T06:37:01.708Z,11.53
2019-04-28T06:40:06.142Z,9.60
2019-04-28T06:43:10.425Z,12.63
2019-04-28T06:46:14.728Z,15.23
2019-04-28T06:49:19.036Z,7.57
2019-04-28T06:52:23.320Z,13.37
2019-04-28T06:55:27.604Z,10.83
2019-04-28T06:58:32.044Z,10.33
2019-04-28T07:01:36.341Z,13.67
2019-04-28T07:04:40.765Z,9.73
2019-04-28T07:07:45.050Z,6.83
2019-04-28T07:10:49.365Z,12.10
2019-04-28T07:13:53.660Z,10.57
2019-04-28T07:16:57.946Z,12.20
2019-04-28T07:20:11.866Z,11.13
2019-04-28T07:23:16.158Z,8.93
2019-04-28T07:26:20.463Z,11.77
2019-04-28T07:29:24.885Z,13.60
2019-04-28T07:32:29.182Z,12.90
2019-04-28T07:35:33.448Z,9.90
2019-04-28T07:38:37.756Z,13.13
2019-04-28T07:41:42.039Z,12.07
2019-04-28T07:44:46.328Z,15.97
2019-04-28T07:47:50.612Z,12.63
2019-04-28T07:50:54.905Z,13.23
2019-04-28T07:54:05.035Z,11.80
2019-04-28T07:57:09.355Z,8.20
2019-04-28T08:00:17.570Z,11.20
2019-04-28T08:03:21.860Z,10.33
2019-04-28T08:06:27.050Z,11.63
2019-04-28T08:09:31.452Z,9.97
2019-04-28T08:12:35.745Z,7.33
2019-04-28T08:15:40.070Z,9.60
2019-04-28T08:18:44.354Z,8.70
2019-04-28T08:21:48.634Z,9.60
2019-04-28T08:24:52.930Z,9.17
2019-04-28T08:27:57.218Z,12.80
2019-04-28T08:31:01.605Z,13.10
2019-04-28T08:34:06.827Z,8.97
2019-04-28T08:37:11.133Z,10.53
2019-04-28T08:40:15.431Z,8.80
2019-04-28T08:43:19.748Z,12.40
2019-04-28T08:46:24.087Z,10.93
2019-04-28T08:49:28.376Z,13.20
2019-04-28T08:52:32.679Z,13.93
2019-04-28T08:55:36.989Z,12.30
2019-04-28T08:58:41.289Z,14.30
2019-04-28T09:01:45.582Z,12.03
2019-04-28T09:04:49.870Z,12.57
2019-04-28T09:07:54.146Z,9.80
2019-04-28T09:10:58.487Z,6.90
2019-04-28T09:14:02.842Z,11.23
2019-04-28T09:17:07.139Z,10.73
2019-04-28T09:20:11.439Z,14.90
2019-04-28T09:23:15.745Z,11.43
2019-04-28T09:26:20.049Z,10.30
2019-04-28T09:29:24.376Z,8.43
2019-04-28T09:32:28.654Z,7.83
2019-04-28T09:35:32.990Z,8.17
2019-04-28T09:38:37.306Z,11.63
2019-04-28T09:41:45.897Z,9.77
2019-04-28T09:44:50.526Z,11.10
2019-04-28T09:47:54.833Z,11.03
2019-04-28T09:50:59.172Z,7.03
2019-04-28T09:54:03.575Z,9.63
2019-04-28T09:57:07.866Z,10.73
2019-04-28T10:00:12.275Z,11.13
2019-04-28T10:03:16.627Z,10.33
2019-04-28T10:06:20.935Z,9.13
2019-04-28T10:09:25.257Z,10.33
2019-04-28T10:12:29.565Z,9.87
2019-04-28T10:15:33.857Z,11.13
2019-04-28T10:18:38.168Z,12.10
2019-04-28T10:21:42.470Z,17.10
2019-04-28T10:24:46.782Z,16.83
2019-04-28T10:27:51.129Z,13.17
2019-04-28T10:30:55.447Z,15.07
2019-04-28T10:34:02.147Z,16.47
2019-04-28T10:37:06.446Z,16.97
2019-04-28T10:40:17.015Z,17.43
2019-04-28T10:43:21.317Z,22.93
2019-04-28T10:46:25.616Z,16.47
2019-04-28T10:49:30.307Z,19.20
2019-04-28T10:52:34.608Z,17.17
2019-04-28T10:55:38.901Z,20.03
2019-04-28T10:58:45.128Z,22.07
2019-04-28T11:01:49.415Z,19.60
2019-04-28T11:05:08.489Z,19.10
2019-04-28T11:08:30.110Z,18.47
2019-04-28T11:11:34.436Z,21.40
2019-04-28T11:14:38.721Z,21.80
2019-04-28T11:17:43.024Z,23.77
2019-04-28T11:20:47.358Z,24.23
2019-04-28T11:23:51.677Z,24.63
2019-04-28T11:26:55.982Z,21.70
2019-04-28T11:30:00.335Z,28.97
2019-04-28T11:33:14.572Z,22.93
2019-04-28T11:36:20.388Z,20.10
2019-04-28T11:39:29.201Z,23.07
2019-04-28T11:42:33.518Z,19.73
2019-04-28T11:45:37.866Z,19.67
2019-04-28T11:48:42.205Z,23.63
2019-04-28T11:51:46.619Z,22.10
2019-04-28T11:54:50.895Z,20.23
2019-04-28T11:57:55.199Z,23.73
2019-04-28T12:00:59.588Z,25.07
2019-04-28T12:04:05.586Z,24.33
2019-04-28T12:07:09.874Z,22.27
2019-04-28T12:10:19.323Z,25.57
2019-04-28T12:13:37.673Z,21.93
2019-04-28T12:17:08.416Z,27.53
2019-04-28T12:20:21.148Z,26.13
2019-04-28T12:23:25.460Z,24.20
2019-04-28T12:26:29.826Z,19.07
2019-04-28T12:29:34.153Z,15.30
2019-04-28T12:32:38.446Z,18.20
2019-04-28T12:35:47.916Z,16.90
2019-04-28T12:38:48.776Z,15.27
2019-04-28T12:41:53.142Z,18.30
2019-04-28T12:44:57.388Z,16.30
2019-04-28T12:48:01.710Z,17.60
2019-04-28T12:51:06.082Z,21.20
2019-04-28T12:54:12.035Z,23.83
2019-04-28T12:57:16.443Z,24.17
2019-04-28T13:00:29.814Z,21.33
2019-04-28T13:03:58.916Z,23.67
2019-04-28T13:07:09.473Z,17.63
2019-04-28T13:10:13.779Z,19.63
2019-04-28T13:13:18.118Z,19.00
2019-04-28T13:16:22.427Z,27.17
2019-04-28T13:19:26.716Z,20.20
2019-04-28T13:22:31.036Z,21.27
2019-04-28T13:25:35.370Z,21.83
2019-04-28T13:28:39.719Z,21.67
2019-04-28T13:31:44.137Z,22.50
2019-04-28T13:34:48.440Z,20.23
2019-04-28T13:37:52.794Z,21.97
2019-04-28T13:40:57.091Z,21.17
2019-04-28T13:44:05.953Z,21.67
2019-04-28T13:47:10.371Z,22.50
2019-04-28T13:50:27.549Z,23.40
2019-04-28T13:53:31.888Z,28.80
2019-04-28T13:56:36.232Z,26.27
2019-04-28T13:59:40.531Z,18.57
2019-04-28T14:02:57.326Z,21.00
2019-04-28T14:06:05.230Z,18.90
2019-04-28T14:09:15.913Z,15.73
2019-04-28T14:12:20.237Z,16.33
2019-04-28T14:15:24.625Z,18.00
2019-04-28T14:18:28.941Z,17.07
2019-04-28T14:21:33.258Z,14.93
2019-04-28T14:24:37.589Z,15.47
2019-04-28T14:27:41.886Z,17.60
2019-04-28T14:30:46.302Z,18.10
2019-04-28T14:33:50.658Z,18.03
2019-04-28T14:36:55.066Z,25.80
2019-04-28T14:39:59.382Z,19.80
2019-04-28T14:43:03.880Z,19.03
2019-04-28T14:46:08.238Z,14.00
2019-04-28T14:49:12.559Z,20.47
2019-04-28T14:52:16.924Z,21.10
2019-04-28T14:55:21.197Z,14.60
2019-04-28T14:58:25.585Z,17.97
2019-04-28T15:01:47.183Z,13.03
2019-04-28T15:05:04.967Z,18.83
2019-04-28T15:08:26.883Z,21.27
2019-04-28T15:11:52.718Z,21.80
2019-04-28T15:14:57.123Z,21.50
2019-04-28T15:18:01.394Z,25.97
2019-04-28T15:21:05.725Z,19.80
2019-04-28T15:24:10.061Z,13.60
2019-04-28T15:27:14.382Z,22.27
2019-04-28T15:30:18.925Z,17.80
2019-04-28T15:33:23.274Z,18.20
2019-04-28T15:36:27.611Z,18.70
2019-04-28T15:39:31.858Z,13.80
2019-04-28T15:42:36.227Z,13.63
2019-04-28T15:45:40.546Z,13.50
2019-04-28T15:48:44.869Z,8.60
2019-04-28T15:51:49.185Z,12.43
2019-04-28T15:54:53.496Z,15.33
2019-04-28T15:57:57.819Z,10.13
2019-04-28T16:01:02.303Z,10.37
2019-04-28T16:04:06.629Z,10.07
2019-04-28T16:07:23.900Z,12.20
2019-04-28T16:10:17.024Z,15.10
2019-04-28T16:13:21.343Z,13.13
2019-04-28T16:16:25.667Z,12.40
2019-04-28T16:19:29.980Z,11.90
2019-04-28T16:22:34.315Z,14.27
2019-04-28T16:25:38.653Z,13.67
2019-04-28T16:28:42.987Z,10.57
2019-04-28T16:31:47.325Z,15.33
2019-04-28T16:34:51.932Z,12.50
2019-04-28T16:37:56.273Z,11.00
2019-04-28T16:41:21.634Z,13.17
2019-04-28T16:44:43.831Z,17.17
2019-04-28T16:47:48.179Z,12.17
2019-04-28T16:50:52.519Z,17.57
2019-04-28T16:53:56.858Z,13.20
2019-04-28T16:57:10.617Z,12.73
2019-04-28T17:00:20.507Z,15.93
2019-04-28T17:03:25.102Z,12.57
2019-04-28T17:06:29.445Z,8.73
2019-04-28T17:09:33.816Z,14.80
2019-04-28T17:12:38.135Z,12.53
2019-04-28T17:15:42.523Z,12.33
2019-04-28T17:18:47.188Z,12.90
2019-04-28T17:21:51.585Z,10.30
2019-04-28T17:24:55.946Z,15.07
2019-04-28T17:28:00.338Z,14.60
2019-04-28T17:31:04.855Z,14.63
2019-04-28T17:34:09.279Z,12.73
2019-04-28T17:37:13.854Z,8.63
2019-04-28T17:40:18.358Z,7.73
2019-04-28T17:43:22.690Z,12.17
2019-04-28T17:46:27.033Z,15.53
2019-04-28T17:49:36.943Z,14.23
2019-04-28T17:52:41.294Z,12.07
2019-04-28T17:55:45.673Z,14.20
2019-04-28T17:58:50.050Z,10.50
2019-04-28T18:02:11.885Z,17.77
2019-04-28T18:05:28.458Z,12.80
2019-04-28T18:08:32.989Z,11.57
2019-04-28T18:11:37.368Z,12.83
2019-04-28T18:14:43.787Z,17.83
2019-04-28T18:18:02.244Z,13.07
2019-04-28T18:21:06.839Z,16.43
2019-04-28T18:24:11.223Z,12.83
2019-04-28T18:27:15.671Z,18.60
2019-04-28T18:30:22.901Z,18.10
2019-04-28T18:33:41.464Z,17.03
2019-04-28T18:36:52.425Z,16.63
2019-04-28T18:40:14.481Z,15.50
2019-04-28T18:43:25.076Z,14.50
2019-04-28T18:46:30.656Z,14.80
2019-04-28T18:49:35.106Z,16.93
2019-04-28T18:52:40.555Z,14.60
2019-04-28T18:55:45.000Z,17.73
2019-04-28T18:58:49.429Z,11.73
2019-04-28T19:02:00.422Z,11.47
2019-04-28T19:05:05.273Z,16.60
2019-04-28T19:08:27.174Z,9.87
2019-04-28T19:11:50.853Z,16.03
2019-04-28T19:15:08.719Z,13.80
2019-04-28T19:18:21.842Z,11.97
2019-04-28T19:21:26.326Z,13.37
2019-04-28T19:24:30.864Z,11.30
2019-04-28T19:27:35.388Z,12.47
2019-04-28T19:30:40.194Z,12.93
2019-04-28T19:33:44.723Z,16.57
2019-04-28T19:36:52.513Z,21.57
2019-04-28T19:39:56.861Z,15.13
2019-04-28T19:43:01.318Z,17.23
2019-04-28T19:46:11.156Z,17.77
2019-04-28T19:49:15.640Z,14.40
2019-04-28T19:52:20.113Z,13.60
2019-04-28T19:55:32.194Z,18.50
2019-04-28T19:58:41.057Z,16.27
2019-04-28T20:01:45.591Z,14.83
2019-04-28T20:04:49.967Z,20.57
2019-04-28T20:07:54.508Z,26.60
2019-04-28T20:10:59.194Z,22.07
2019-04-28T20:14:03.695Z,24.73
2019-04-28T20:17:08.143Z,28.00
2019-04-28T20:20:12.949Z,26.13
2019-04-28T20:23:17.353Z,25.83
2019-04-28T20:26:21.767Z,28.80
2019-04-28T20:29:26.091Z,25.80
2019-04-28T20:32:33.016Z,26.60
2019-04-28T20:35:41.340Z,27.73
2019-04-28T20:38:46.755Z,26.47
2019-04-28T20:41:52.885Z,31.87
2019-04-28T20:44:57.292Z,30.37
2019-04-28T20:48:01.595Z,27.00
2019-04-28T20:51:05.976Z,30.70
2019-04-28T20:54:10.291Z,27.90
2019-04-28T20:57:14.577Z,29.87
2019-04-28T21:00:19.004Z,29.50
2019-04-28T21:03:23.378Z,26.70
2019-04-28T21:06:27.694Z,29.80
2019-04-28T21:09:32.002Z,25.70
2019-04-28T21:12:36.338Z,33.90
2019-04-28T21:15:40.636Z,31.70
2019-04-28T21:18:44.947Z,30.43
2019-04-28T21:21:49.244Z,26.03
2019-04-28T21:24:53.580Z,31.27
2019-04-28T21:27:57.890Z,35.40
2019-04-28T21:31:02.208Z,31.37
2019-04-28T21:34:06.510Z,32.40
2019-04-28T21:37:10.830Z,29.13
2019-04-28T21:40:16.227Z,34.30
2019-04-28T21:43:35.150Z,36.57
2019-04-28T21:46:44.138Z,30.27
2019-04-28T21:49:48.460Z,36.47
2019-04-28T21:52:52.760Z,35.37
2019-04-28T21:55:57.074Z,42.43
2019-04-28T21:59:01.388Z,38.97
2019-04-28T22:02:05.711Z,41.53
2019-04-28T22:05:11.062Z,42.17
2019-04-28T22:08:15.382Z,38.77
2019-04-28T22:11:19.713Z,39.07
2019-04-28T22:14:24.029Z,39.57
2019-04-28T22:17:28.328Z,41.43
2019-04-28T22:20:32.640Z,43.53
2019-04-28T22:23:58.911Z,42.27
2019-04-28T22:27:03.214Z,44.43
2019-04-28T22:30:07.886Z,49.03
2019-04-28T22:33:12.168Z,50.37
2019-04-28T22:36:16.482Z,43.17
2019-04-28T22:39:20.781Z,46.20
2019-04-28T22:42:25.083Z,45.90
2019-04-28T22:45:29.389Z,51.10
2019-04-28T22:48:33.681Z,46.30
2019-04-28T22:51:37.991Z,47.30
2019-04-28T22:55:07.414Z,52.80
2019-04-28T22:58:24.366Z,50.37
2019-04-28T23:01:31.202Z,53.77
2019-04-28T23:04:39.542Z,47.63
2019-04-28T23:07:43.826Z,46.23
2019-04-28T23:10:48.154Z,45.00
2019-04-28T23:13:52.517Z,47.37
2019-04-28T23:16:57.323Z,50.20
2019-04-28T23:20:01.685Z,46.13
2019-04-28T23:23:06.845Z,45.07
2019-04-28T23:26:11.251Z,47.47
2019-04-28T23:29:15.686Z,49.23
2019-04-28T23:32:20.003Z,43.27
2019-04-28T23:35:24.725Z,44.33
2019-04-28T23:38:29.005Z,47.47
2019-04-28T23:41:48.401Z,45.50
2019-04-28T23:44:52.742Z,49.37
2019-04-28T23:47:57.196Z,49.03
2019-04-28T23:51:20.527Z,48.77
2019-04-28T23:54:24.935Z,46.87
2019-04-28T23:57:29.230Z,43.70
